Map

Track Data

SID SEASON NUMBER BASIN SUBBASIN NAME ISO_TIME NATURE LAT LON WMO_WIND WMO_PRES WMO_AGENCY TRACK_TYPE DIST2LAND LANDFALL IFLAG USA_AGENCY USA_ATCF_ID USA_LAT USA_LON USA_RECORD USA_STATUS USA_WIND USA_PRES USA_SSHS USA_R34_NE USA_R34_SE USA_R34_SW USA_R34_NW USA_R50_NE USA_R50_SE USA_R50_SW USA_R50_NW USA_R64_NE USA_R64_SE USA_R64_SW USA_R64_NW USA_POCI USA_ROCI USA_RMW USA_EYE TOKYO_LAT TOKYO_LON TOKYO_GRADE TOKYO_WIND TOKYO_PRES TOKYO_R50_DIR TOKYO_R50_LONG TOKYO_R50_SHORT TOKYO_R30_DIR TOKYO_R30_LONG TOKYO_R30_SHORT TOKYO_LAND CMA_LAT CMA_LON CMA_CAT CMA_WIND CMA_PRES HKO_LAT HKO_LON HKO_CAT HKO_WIND HKO_PRES NEWDELHI_LAT NEWDELHI_LON NEWDELHI_GRADE NEWDELHI_WIND NEWDELHI_PRES NEWDELHI_CI NEWDELHI_DP NEWDELHI_POCI REUNION_LAT REUNION_LON REUNION_TYPE REUNION_WIND REUNION_PRES REUNION_TNUM REUNION_CI REUNION_RMW REUNION_R34_NE REUNION_R34_SE REUNION_R34_SW REUNION_R34_NW REUNION_R50_NE REUNION_R50_SE REUNION_R50_SW REUNION_R50_NW REUNION_R64_NE REUNION_R64_SE REUNION_R64_SW REUNION_R64_NW BOM_LAT BOM_LON BOM_TYPE BOM_WIND BOM_PRES BOM_TNUM BOM_CI BOM_RMW BOM_R34_NE BOM_R34_SE BOM_R34_SW BOM_R34_NW BOM_R50_NE BOM_R50_SE BOM_R50_SW BOM_R50_NW BOM_R64_NE BOM_R64_SE BOM_R64_SW BOM_R64_NW BOM_ROCI BOM_POCI BOM_EYE BOM_POS_METHOD BOM_PRES_METHOD NADI_LAT NADI_LON NADI_CAT NADI_WIND NADI_PRES WELLINGTON_LAT WELLINGTON_LON WELLINGTON_WIND WELLINGTON_PRES DS824_LAT DS824_LON DS824_STAGE DS824_WIND DS824_PRES TD9636_LAT TD9636_LON TD9636_STAGE TD9636_WIND TD9636_PRES TD9635_LAT TD9635_LON TD9635_WIND TD9635_PRES TD9635_ROCI NEUMANN_LAT NEUMANN_LON NEUMANN_CLASS NEUMANN_WIND NEUMANN_PRES MLC_LAT MLC_LON MLC_CLASS MLC_WIND MLC_PRES USA_GUST BOM_GUST BOM_GUST_PER REUNION_GUST REUNION_GUST_PER USA_SEAHGT USA_SEARAD_NE USA_SEARAD_SE USA_SEARAD_SW USA_SEARAD_NW STORM_SPEED STORM_DIR
1975216N18132 1975 65 WP MM NOT_NAMED 1975-08-04 00:00:00 TS 18.3000 131.700 main 922 916 __O___________ -1 18.3000 131.700 0 19 1002 8 327
1975216N18132 1975 65 WP MM NOT_NAMED 1975-08-04 03:00:00 TS 18.6202 131.480 main 922 920 __P___________ -1 18.6202 131.480 0 19 1001 8 332
1975216N18132 1975 65 WP MM NOT_NAMED 1975-08-04 06:00:00 TS 19.0000 131.300 main 931 931 __O___________ -1 19.0000 131.300 0 19 1001 9 340
1975216N18132 1975 65 WP MM NOT_NAMED 1975-08-04 09:00:00 TS 19.4646 131.160 main 943 918 __P___________ -1 19.4646 131.160 0 19 1001 10 337
1975216N18132 1975 65 WP MM NOT_NAMED 1975-08-04 12:00:00 TS 19.9000 130.900 main 918 871 __O___________ -1 19.9000 130.900 0 19 1001 10 313
1975216N18132 1975 65 WP MM NOT_NAMED 1975-08-04 15:00:00 TS 20.1575 130.382 main 873 807 __P___________ -1 20.1575 130.382 0 19 1001 12 294
1975216N18132 1975 65 WP MM NOT_NAMED 1975-08-04 18:00:00 TS 20.4000 129.700 main 807 747 __O___________ -1 20.4000 129.700 0 19 1001 15 295
1975216N18132 1975 65 WP MM NOT_NAMED 1975-08-04 21:00:00 TS 20.7702 128.950 main 751 692 __P___________ -1 20.7702 128.950 0 19 1001 16 300
1975216N18132 1975 65 WP MM NOT_NAMED 1975-08-05 00:00:00 TS 21.2000 128.200 main 692 659 __O___________ -1 21.2000 128.200 0 19 1001 15 303
1975216N18132 1975 65 WP MM NOT_NAMED 1975-08-05 03:00:00 TS 21.6122 127.562 main 659 585 __P___________ -1 21.6122 127.562 0 19 1001 14 309
1975216N18132 1975 65 WP MM NOT_NAMED 1975-08-05 06:00:00 TS 22.1000 127.000 main 585 509 __O___________ -1 22.1000 127.000 0 19 1001 15 319
1975216N18132 1975 65 WP MM NOT_NAMED 1975-08-05 09:00:00 TS 22.7344 126.514 main 509 434 __P___________ -1 22.7344 126.514 0 19 1000 16 325
1975216N18132 1975 65 WP MM NOT_NAMED 1975-08-05 12:00:00 TS 23.4000 126.000 main 434 357 __O___________ -1 23.4000 126.000 0 19 1000 17 321
1975216N18132 1975 65 WP MM NOT_NAMED 1975-08-05 15:00:00 TS 24.0852 125.317 main 347 268 __P___________ -1 24.0852 125.317 0 19 1000 17 311
1975216N18132 1975 65 WP MM NOT_NAMED 1975-08-05 18:00:00 TS 24.5000 124.600 main 268 212 __O___________ -1 24.5000 124.600 0 19 1000 13 283
1975216N18132 1975 65 WP MM NOT_NAMED 1975-08-05 21:00:00 TS 24.3774 123.946 main 202 161 __P___________ -1 24.3774 123.946 0 21 999 12 245
1975216N18132 1975 65 WP MM NOT_NAMED 1975-08-06 00:00:00 TS 24.0000 123.400 main 161 136 __O___________ -1 24.0000 123.400 1 23 999 11 234
1975216N18132 1975 65 WP MM NOT_NAMED 1975-08-06 03:00:00 TS 23.7148 122.960 main 142 124 __P___________ -1 23.7148 122.960 1 23 999 9 227
1975216N18132 1975 65 WP MM NOT_NAMED 1975-08-06 06:00:00 TS 23.4000 122.700 main 126 120 __O___________ -1 23.4000 122.700 1 23 999 8 203
1975216N18132 1975 65 WP MM NOT_NAMED 1975-08-06 09:00:00 TS 22.9823 122.618 main 123 123 __P___________ -1 22.9823 122.618 1 26 999 7 0
1975216N18132 1975 65 WP MM NOT_NAMED 1975-08-06 12:00:00 TS 22.7000 122.700 main 140 140 __O___________ -1 22.7000 122.700 1 29 999 4 119
1975216N18132 1975 65 WP MM NOT_NAMED 1975-08-06 15:00:00 TS 22.8126 122.952 main 167 165 __P___________ -1 22.8126 122.952 1 29 998 5 51
1975216N18132 1975 65 WP MM NOT_NAMED 1975-08-06 18:00:00 TS 23.0000 123.100 main 174 143 __O___________ -1 23.0000 123.100 1 29 998 2 317
1975216N18132 1975 65 WP MM NOT_NAMED 1975-08-06 21:00:00 TS 22.9453 122.817 main 144 107 __P___________ -1 22.9453 122.817 1 29 998 7 253
1975216N18132 1975 65 WP MM NOT_NAMED 1975-08-07 00:00:00 TS 22.8000 122.400 main 107 84 __O___________ -1 22.8000 122.400 1 29 998 7 246
1975216N18132 1975 65 WP MM NOT_NAMED 1975-08-07 03:00:00 TS 22.6473 122.103 main 90 83 __P___________ -1 22.6473 122.103 1 24 998 6 237
1975216N18132 1975 65 WP MM NOT_NAMED 1975-08-07 06:00:00 TS 22.5000 121.900 main 83 __O___________ -1 22.5000 121.900 0 19 998 5 232

Digital Typhoon Data and Search

About IBTrACS Database

This database is a web-friendly format of International Best Track Archive for Climate Stewardship (IBTrACS), a global best track data archive curated by NOAA dating back to 1842.

Updated: 2021-12-08